createdAt,value
2018-12-13T00:00:36.328Z,4.75
2018-12-13T00:03:07.947Z,4.78
2018-12-13T00:05:38.631Z,4.81
2018-12-13T00:08:08.953Z,4.75
2018-12-13T00:10:39.082Z,4.71
2018-12-13T00:13:09.523Z,4.71
2018-12-13T00:15:39.654Z,4.73
2018-12-13T00:18:09.272Z,4.68
2018-12-13T00:20:39.760Z,4.65
2018-12-13T00:23:09.584Z,4.58
2018-12-13T00:25:39.033Z,4.55
2018-12-13T00:28:09.621Z,4.52
2018-12-13T00:30:39.711Z,4.48
2018-12-13T00:33:09.602Z,4.41
2018-12-13T00:35:39.763Z,4.32
2018-12-13T00:38:09.407Z,4.28
2018-12-13T00:40:38.999Z,4.24
2018-12-13T00:43:08.847Z,4.21
2018-12-13T00:45:38.573Z,4.16
2018-12-13T00:48:08.289Z,4.13
2018-12-13T00:50:39.258Z,4.02
2018-12-13T00:53:10.447Z,3.93
2018-12-13T00:55:40.570Z,3.99
2018-12-13T00:58:10.170Z,4.04
2018-12-13T01:00:40.113Z,4.05
2018-12-13T01:03:10.627Z,4.00
2018-12-13T01:05:40.784Z,3.98
2018-12-13T01:08:10.476Z,3.94
2018-12-13T01:10:40.745Z,3.96
2018-12-13T01:13:10.732Z,3.96
2018-12-13T01:15:40.182Z,3.99
2018-12-13T01:18:10.489Z,4.02
2018-12-13T01:20:39.941Z,3.99
2018-12-13T01:23:09.747Z,3.99
2018-12-13T01:25:41.311Z,3.96
2018-12-13T01:28:11.001Z,4.00
2018-12-13T01:30:40.945Z,3.97
2018-12-13T01:33:11.215Z,3.97
2018-12-13T01:35:40.763Z,3.94
2018-12-13T01:38:11.890Z,4.00
2018-12-13T01:40:42.627Z,4.01
2018-12-13T01:43:13.110Z,3.97
2018-12-13T01:45:43.097Z,3.96
2018-12-13T01:48:13.608Z,3.97
2018-12-13T01:50:43.485Z,3.89
2018-12-13T01:53:13.270Z,3.85
2018-12-13T01:55:43.691Z,3.80
2018-12-13T01:58:13.490Z,3.80
2018-12-13T02:00:43.323Z,3.80
2018-12-13T02:03:13.290Z,3.78
2018-12-13T02:05:42.947Z,3.75
2018-12-13T02:08:13.977Z,3.68
2018-12-13T02:10:43.616Z,3.67
2018-12-13T02:13:13.144Z,3.68
2018-12-13T02:15:43.195Z,3.67
2018-12-13T02:18:12.911Z,3.74
2018-12-13T02:20:42.664Z,3.76
2018-12-13T02:23:13.363Z,3.76
2018-12-13T02:25:43.076Z,3.72
2018-12-13T02:28:12.478Z,3.71
2018-12-13T02:30:42.453Z,3.75
2018-12-13T02:33:11.853Z,3.73
2018-12-13T02:35:41.576Z,3.71
2018-12-13T02:38:11.734Z,3.74
2018-12-13T02:40:41.634Z,3.71
2018-12-13T02:43:11.774Z,3.73
2018-12-13T02:45:42.122Z,3.71
2018-12-13T02:48:12.297Z,3.70
2018-12-13T02:50:41.985Z,3.73
2018-12-13T02:53:12.278Z,3.77
2018-12-13T02:55:41.975Z,3.73
2018-12-13T02:58:12.086Z,3.68
2018-12-13T03:00:42.122Z,3.70
2018-12-13T03:03:12.539Z,3.68
2018-12-13T03:05:42.417Z,3.68
2018-12-13T03:08:12.565Z,3.69
2018-12-13T03:10:42.239Z,3.67
2018-12-13T03:13:12.062Z,3.65
2018-12-13T03:15:42.310Z,3.66
2018-12-13T03:18:12.971Z,3.65
2018-12-13T03:20:42.709Z,3.64
2018-12-13T03:23:12.589Z,3.57
2018-12-13T03:25:42.143Z,3.48
2018-12-13T03:28:11.512Z,3.37
2018-12-13T03:30:41.350Z,3.28
2018-12-13T03:33:10.758Z,3.24
2018-12-13T03:35:40.728Z,3.19
2018-12-13T03:38:11.170Z,3.16
2018-12-13T03:40:41.998Z,3.17
2018-12-13T03:43:12.228Z,3.16
2018-12-13T03:45:41.857Z,3.17
2018-12-13T03:48:11.803Z,3.18
2018-12-13T03:50:41.670Z,3.16
2018-12-13T03:53:11.199Z,3.01
2018-12-13T03:55:40.643Z,2.91
2018-12-13T03:58:10.169Z,2.87
2018-12-13T04:00:40.037Z,2.11
2018-12-13T04:03:09.681Z,2.70
2018-12-13T04:05:39.630Z,2.61
2018-12-13T04:08:09.192Z,2.53
2018-12-13T04:10:40.567Z,2.52
2018-12-13T04:13:10.656Z,2.52
2018-12-13T04:15:40.576Z,2.48
2018-12-13T04:18:11.706Z,2.52
2018-12-13T04:20:41.603Z,2.56
2018-12-13T04:23:11.194Z,2.57
2018-12-13T04:25:41.558Z,2.59
2018-12-13T04:28:12.533Z,2.61
2018-12-13T04:30:42.247Z,2.65
2018-12-13T04:33:12.138Z,2.67
2018-12-13T04:35:41.858Z,2.68
2018-12-13T04:38:11.793Z,2.65
2018-12-13T04:40:41.645Z,2.64
2018-12-13T04:43:11.066Z,2.61
2018-12-13T04:45:41.150Z,2.60
2018-12-13T04:48:11.644Z,2.59
2018-12-13T04:50:42.746Z,2.20
2018-12-13T04:53:13.125Z,2.39
2018-12-13T04:55:42.730Z,2.47
2018-12-13T04:58:12.118Z,2.43
2018-12-13T05:00:42.589Z,2.43
2018-12-13T05:03:12.238Z,2.44
2018-12-13T05:05:42.972Z,1.40
2018-12-13T05:08:13.337Z,2.53
2018-12-13T05:10:56.550Z,2.57
2018-12-13T05:13:26.979Z,2.59
2018-12-13T05:16:15.681Z,2.66
2018-12-13T05:18:52.286Z,2.73
2018-12-13T05:21:22.578Z,2.80
2018-12-13T05:23:52.214Z,2.86
2018-12-13T05:26:22.188Z,2.91
2018-12-13T05:28:52.311Z,2.96
2018-12-13T05:31:22.746Z,2.97
2018-12-13T05:33:55.092Z,2.97
2018-12-13T05:36:25.279Z,2.98
2018-12-13T05:38:54.799Z,3.02
2018-12-13T05:41:25.235Z,3.03
2018-12-13T05:43:55.941Z,3.09
2018-12-13T05:46:25.469Z,3.12
2018-12-13T05:48:55.732Z,3.14
2018-12-13T05:51:25.601Z,3.15
2018-12-13T05:53:55.450Z,3.12
2018-12-13T05:56:27.303Z,3.09
2018-12-13T05:58:58.560Z,3.03
2018-12-13T06:01:28.041Z,3.06
2018-12-13T06:03:58.615Z,3.03
2018-12-13T06:06:28.475Z,3.02
2018-12-13T06:08:57.967Z,3.07
2018-12-13T06:11:28.508Z,3.03
2018-12-13T06:13:58.386Z,3.03
2018-12-13T06:16:28.344Z,3.01
2018-12-13T06:18:58.771Z,3.01
2018-12-13T06:21:36.664Z,2.95
2018-12-13T06:24:02.628Z,2.96
2018-12-13T06:26:32.353Z,2.93
2018-12-13T06:29:02.861Z,2.97
2018-12-13T06:31:33.410Z,2.58
2018-12-13T06:34:03.260Z,3.03
2018-12-13T06:36:32.864Z,3.06
2018-12-13T06:39:02.550Z,3.01
2018-12-13T06:41:33.114Z,3.02
2018-12-13T06:44:03.596Z,3.05
2018-12-13T06:46:35.511Z,3.02
2018-12-13T06:49:05.196Z,2.92
2018-12-13T06:51:34.971Z,2.96
2018-12-13T06:54:04.809Z,2.99
2018-12-13T06:56:34.729Z,2.99
2018-12-13T06:59:04.900Z,2.97
2018-12-13T07:01:35.272Z,2.25
2018-12-13T07:04:05.808Z,2.88
2018-12-13T07:06:35.625Z,2.85
2018-12-13T07:09:06.983Z,2.85
2018-12-13T07:11:36.825Z,2.91
2018-12-13T07:14:06.853Z,2.94
2018-12-13T07:16:36.918Z,2.99
2018-12-13T07:19:06.604Z,3.04
2018-12-13T07:21:36.229Z,3.05
2018-12-13T07:24:06.182Z,3.06
2018-12-13T07:26:36.166Z,3.04
2018-12-13T07:29:06.282Z,3.05
2018-12-13T07:31:36.549Z,2.43
2018-12-13T07:34:06.483Z,3.14
2018-12-13T07:36:36.109Z,3.13
2018-12-13T07:39:10.748Z,3.13
2018-12-13T07:41:40.419Z,3.17
2018-12-13T07:44:11.193Z,3.21
2018-12-13T07:46:41.770Z,3.25
2018-12-13T07:49:11.235Z,3.27
2018-12-13T07:51:41.001Z,3.34
2018-12-13T07:54:10.984Z,3.38
2018-12-13T07:56:40.417Z,3.42
2018-12-13T07:59:10.757Z,3.43
2018-12-13T08:01:40.664Z,3.37
2018-12-13T08:04:10.485Z,3.40
2018-12-13T08:06:40.485Z,3.44
2018-12-13T08:09:10.593Z,3.41
2018-12-13T08:11:40.337Z,3.39
2018-12-13T08:14:11.365Z,3.31
2018-12-13T08:23:23.334Z,3.37
2018-12-13T08:25:54.332Z,3.37
2018-12-13T08:28:25.785Z,2.97
2018-12-13T08:30:56.871Z,3.45
2018-12-13T08:33:27.091Z,3.47
2018-12-13T08:35:58.160Z,3.50
2018-12-13T08:38:29.444Z,3.54
2018-12-13T08:40:59.936Z,3.56
2018-12-13T08:43:30.409Z,3.57
2018-12-13T08:46:01.048Z,3.54
2018-12-13T08:48:31.364Z,3.51
2018-12-13T08:51:02.669Z,3.50
2018-12-13T08:53:33.236Z,3.51
2018-12-13T08:59:24.494Z,3.50
2018-12-13T09:01:55.164Z,3.50
2018-12-13T09:04:26.669Z,3.52
2018-12-13T09:06:58.151Z,3.56
2018-12-13T09:09:28.341Z,3.61
2018-12-13T09:11:58.785Z,3.63
2018-12-13T09:14:30.627Z,3.70
2018-12-13T09:17:03.223Z,3.68
2018-12-13T09:19:34.533Z,3.69
2018-12-13T09:22:05.123Z,3.69
2018-12-13T09:24:36.138Z,3.15
2018-12-13T09:27:06.861Z,3.09
2018-12-13T09:29:37.931Z,3.76
2018-12-13T09:32:09.732Z,3.77
2018-12-13T09:34:40.805Z,3.77
2018-12-13T09:37:11.840Z,3.76
2018-12-13T09:39:42.879Z,2.54
2018-12-13T09:42:26.622Z,3.89
2018-12-13T09:44:57.705Z,3.89
2018-12-13T09:47:28.217Z,3.91
2018-12-13T09:50:00.353Z,3.98
2018-12-13T09:52:30.995Z,3.99
2018-12-13T09:55:05.601Z,3.98
2018-12-13T09:57:37.343Z,4.02
2018-12-13T10:00:11.112Z,3.62
2018-12-13T10:02:42.992Z,4.06
2018-12-13T10:05:13.428Z,4.11
2018-12-13T10:07:45.081Z,4.16
2018-12-13T10:10:16.277Z,4.13
2018-12-13T10:12:46.779Z,4.18
2018-12-13T10:15:17.518Z,4.19
2018-12-13T10:17:48.736Z,4.20
2018-12-13T10:20:19.527Z,4.23
2018-12-13T10:22:50.427Z,4.25
2018-12-13T10:25:23.265Z,4.26
2018-12-13T10:27:55.050Z,4.24
2018-12-13T10:30:25.574Z,4.22
2018-12-13T10:32:56.851Z,4.29
2018-12-13T10:35:27.582Z,4.35
2018-12-13T10:37:59.928Z,4.47
2018-12-13T10:40:30.985Z,4.63
2018-12-13T10:43:02.183Z,4.73
2018-12-13T10:45:32.848Z,4.84
2018-12-13T10:48:04.875Z,4.88
2018-12-13T10:50:35.036Z,5.01
2018-12-13T10:53:05.632Z,5.08
2018-12-13T10:55:37.048Z,5.21
2018-12-13T10:58:08.085Z,5.29
2018-12-13T11:00:43.920Z,5.40
2018-12-13T11:03:23.815Z,5.37
2018-12-13T11:05:54.900Z,5.32
2018-12-13T11:08:27.538Z,5.20
2018-12-13T11:11:35.903Z,5.24
2018-12-13T11:14:07.942Z,5.28
2018-12-13T11:16:39.640Z,5.31
2018-12-13T11:19:11.252Z,5.35
2018-12-13T11:21:42.329Z,5.36
2018-12-13T11:24:13.109Z,5.43
2018-12-13T11:26:44.429Z,5.29
2018-12-13T11:29:38.503Z,5.29
2018-12-13T11:32:09.436Z,5.25
2018-12-13T11:34:42.242Z,5.24
2018-12-13T11:37:14.519Z,5.29
2018-12-13T11:39:49.035Z,5.36
2018-12-13T11:42:24.780Z,5.39
2018-12-13T11:44:55.803Z,5.36
2018-12-13T11:47:27.184Z,5.35
2018-12-13T11:49:58.221Z,5.41
2018-12-13T11:52:30.525Z,5.44
2018-12-13T11:55:07.196Z,4.77
2018-12-13T11:57:38.069Z,5.40
2018-12-13T12:00:09.066Z,5.53
2018-12-13T12:02:39.644Z,5.58
2018-12-13T12:05:10.278Z,5.54
2018-12-13T12:07:41.096Z,5.52
2018-12-13T12:10:11.672Z,5.55
2018-12-13T12:12:41.968Z,5.49
2018-12-13T12:15:12.197Z,5.43
2018-12-13T12:17:42.433Z,5.34
2018-12-13T12:20:12.706Z,5.36
2018-12-13T12:22:43.761Z,5.40
2018-12-13T12:25:16.519Z,5.37
2018-12-13T12:27:46.811Z,5.37
2018-12-13T12:30:18.025Z,5.36
2018-12-13T12:32:49.177Z,5.27
2018-12-13T12:35:21.370Z,5.22
2018-12-13T12:37:52.291Z,5.18
2018-12-13T12:40:22.821Z,4.57
2018-12-13T12:42:54.179Z,4.65
2018-12-13T12:45:25.222Z,5.16
2018-12-13T12:47:56.172Z,5.08
2018-12-13T12:50:26.456Z,5.02
2018-12-13T12:52:56.648Z,4.95
2018-12-13T12:55:27.819Z,4.94
2018-12-13T12:57:58.357Z,4.87
2018-12-13T13:00:28.448Z,4.85
2018-12-13T13:02:59.122Z,4.88
2018-12-13T13:05:29.734Z,4.92
2018-12-13T13:08:00.816Z,4.89
2018-12-13T13:10:33.164Z,4.85
2018-12-13T13:13:04.194Z,4.81
2018-12-13T13:15:34.563Z,4.74
2018-12-13T13:18:05.309Z,4.62
2018-12-13T13:20:36.126Z,4.48
2018-12-13T13:23:06.503Z,4.35
2018-12-13T13:25:36.881Z,4.19
2018-12-13T13:28:07.923Z,4.10
2018-12-13T13:30:38.130Z,3.98
2018-12-13T13:33:08.556Z,3.89
2018-12-13T13:35:40.226Z,3.81
2018-12-13T13:38:11.243Z,3.81
2018-12-13T13:40:41.435Z,3.84
2018-12-13T13:43:12.006Z,3.91
2018-12-13T13:45:42.468Z,3.96
2018-12-13T13:48:12.826Z,3.98
2018-12-13T13:50:44.225Z,4.05
2018-12-13T13:53:15.723Z,4.09
2018-12-13T13:55:46.031Z,4.12
2018-12-13T13:58:17.417Z,4.14
2018-12-13T14:00:47.616Z,4.24
2018-12-13T14:03:18.431Z,4.34
2018-12-13T14:05:49.245Z,4.44
2018-12-13T14:08:19.829Z,4.43
2018-12-13T14:10:50.505Z,4.42
2018-12-13T14:13:20.950Z,4.40
2018-12-13T14:15:51.365Z,4.45
2018-12-13T14:18:23.756Z,4.47
2018-12-13T14:20:54.002Z,4.44
2018-12-13T14:23:25.073Z,4.24
2018-12-13T14:25:55.499Z,4.18
2018-12-13T14:28:28.283Z,3.97
2018-12-13T14:30:58.805Z,3.83
2018-12-13T14:33:29.356Z,3.71
2018-12-13T14:36:00.590Z,3.57
2018-12-13T14:38:32.007Z,3.49
2018-12-13T14:41:02.519Z,3.40
2018-12-13T14:43:33.210Z,3.18
2018-12-13T14:46:03.737Z,3.10
2018-12-13T14:48:33.951Z,3.07
2018-12-13T14:51:04.214Z,3.01
2018-12-13T14:53:36.944Z,2.92
2018-12-13T14:56:07.797Z,2.81
2018-12-13T14:58:38.617Z,2.77
2018-12-13T15:01:09.049Z,2.80
2018-12-13T15:03:39.342Z,2.82
2018-12-13T15:06:10.601Z,2.90
2018-12-13T15:08:41.129Z,2.88
2018-12-13T15:11:12.676Z,2.94
2018-12-13T15:13:43.745Z,2.97
2018-12-13T15:16:15.781Z,2.93
2018-12-13T15:18:47.129Z,2.47
2018-12-13T15:21:18.081Z,2.79
2018-12-13T15:23:49.042Z,2.69
2018-12-13T15:26:21.094Z,2.63
2018-12-13T15:28:52.257Z,2.57
2018-12-13T15:31:23.207Z,2.52
2018-12-13T15:33:54.515Z,2.42
2018-12-13T15:36:25.507Z,2.43
2018-12-13T15:38:57.836Z,2.42
2018-12-13T15:41:30.240Z,2.53
2018-12-13T15:44:01.984Z,2.63
2018-12-13T15:46:33.892Z,2.72
2018-12-13T15:49:07.749Z,2.77
2018-12-13T15:51:38.921Z,2.81
2018-12-13T15:54:11.191Z,2.76
2018-12-13T15:56:41.620Z,2.71
2018-12-13T15:59:13.192Z,2.62
2018-12-13T16:01:44.264Z,2.58
2018-12-13T16:04:17.108Z,2.54
2018-12-13T16:06:47.677Z,2.55
2018-12-13T16:09:18.419Z,2.57
2018-12-13T16:11:48.691Z,2.62
2018-12-13T16:14:20.746Z,2.69
2018-12-13T16:16:51.864Z,2.73
2018-12-13T16:19:22.416Z,2.76
2018-12-13T16:21:53.215Z,2.81
2018-12-13T16:24:25.324Z,2.84
2018-12-13T16:26:55.822Z,2.90
2018-12-13T16:29:26.454Z,2.96
2018-12-13T16:31:57.026Z,2.95
2018-12-13T16:34:27.353Z,2.96
2018-12-13T16:43:59.136Z,2.94
2018-12-13T16:46:33.930Z,2.93
2018-12-13T16:49:04.240Z,2.91
2018-12-13T16:51:38.928Z,2.84
2018-12-13T16:54:11.718Z,2.80
2018-12-13T16:56:42.122Z,2.73
2018-12-13T16:59:14.402Z,2.71
2018-12-13T17:01:44.841Z,2.69
2018-12-13T17:04:15.906Z,2.64
2018-12-13T17:06:46.081Z,2.58
2018-12-13T17:09:16.683Z,2.56
2018-12-13T17:11:47.056Z,2.54
2018-12-13T17:14:19.661Z,2.50
2018-12-13T17:16:52.112Z,1.72
2018-12-13T17:19:23.769Z,2.36
2018-12-13T17:21:54.288Z,2.27
2018-12-13T17:24:25.749Z,2.20
2018-12-13T17:26:57.303Z,2.14
2018-12-13T17:29:27.758Z,2.09
2018-12-13T17:31:58.714Z,2.07
2018-12-13T17:34:29.204Z,2.09
2018-12-13T17:36:59.500Z,2.14
2018-12-13T17:39:31.047Z,2.22
2018-12-13T17:42:01.429Z,2.32
2018-12-13T17:44:32.027Z,2.42
2018-12-13T17:47:02.666Z,2.52
2018-12-13T17:49:33.037Z,2.59
2018-12-13T17:52:03.550Z,2.64
2018-12-13T17:54:35.240Z,2.66
2018-12-13T17:57:08.944Z,2.66
2018-12-13T17:59:40.383Z,2.67
2018-12-13T18:02:11.409Z,2.61
2018-12-13T18:04:43.034Z,2.58
2018-12-13T18:07:14.780Z,2.55
2018-12-13T18:09:47.657Z,2.48
2018-12-13T18:12:18.013Z,2.45
2018-12-13T18:14:50.109Z,1.67
2018-12-13T18:17:21.141Z,2.25
2018-12-13T18:19:51.525Z,2.15
2018-12-13T18:22:21.762Z,2.09
2018-12-13T18:24:52.143Z,2.04
2018-12-13T18:27:22.400Z,2.04
2018-12-13T18:29:53.571Z,2.01
2018-12-13T18:32:24.304Z,2.05
2018-12-13T18:34:54.874Z,2.10
2018-12-13T18:37:25.377Z,2.22
2018-12-13T18:39:55.602Z,2.29
2018-12-13T18:42:25.833Z,2.35
2018-12-13T18:44:56.417Z,2.44
2018-12-13T18:47:28.275Z,2.49
2018-12-13T18:49:59.692Z,2.57
2018-12-13T18:52:31.037Z,2.65
2018-12-13T18:55:02.906Z,2.67
2018-12-13T18:57:33.853Z,2.73
2018-12-13T19:00:05.381Z,2.73
2018-12-13T19:02:36.385Z,2.12
2018-12-13T19:05:08.155Z,2.83
2018-12-13T19:07:38.876Z,2.80
2018-12-13T19:10:12.377Z,2.85
2018-12-13T19:12:45.426Z,2.93
2018-12-13T19:15:18.202Z,2.94
2018-12-13T19:17:49.873Z,2.87
2018-12-13T19:20:22.205Z,2.86
2018-12-13T19:22:54.058Z,2.37
2018-12-13T19:25:28.263Z,2.92
2018-12-13T19:28:01.578Z,2.97
2018-12-13T19:30:45.491Z,2.99
2018-12-13T19:33:19.477Z,3.04
2018-12-13T19:36:00.956Z,3.10
2018-12-13T19:38:34.215Z,3.12
2018-12-13T19:41:10.402Z,3.13
2018-12-13T19:43:42.067Z,2.07
2018-12-13T19:46:16.277Z,3.17
2018-12-13T19:48:49.647Z,3.09
2018-12-13T19:51:24.311Z,2.43
2018-12-13T19:53:56.571Z,3.05
2018-12-13T19:56:27.979Z,3.06
2018-12-13T19:59:00.280Z,3.07
2018-12-13T20:01:31.090Z,3.08
2018-12-13T20:04:01.663Z,3.14
2018-12-13T20:06:32.840Z,3.17
2018-12-13T20:09:07.766Z,3.16
2018-12-13T20:11:38.755Z,3.20
2018-12-13T20:14:16.878Z,3.23
2018-12-13T20:16:49.303Z,3.27
2018-12-13T20:19:22.007Z,3.28
2018-12-13T20:21:52.793Z,3.31
2018-12-13T20:24:24.171Z,3.25
2018-12-13T20:26:55.928Z,3.24
2018-12-13T20:29:26.789Z,2.44
2018-12-13T20:31:58.102Z,3.23
2018-12-13T20:34:31.162Z,3.26
2018-12-13T20:37:09.343Z,3.29
2018-12-13T20:39:40.172Z,3.29
2018-12-13T20:42:10.962Z,3.27
2018-12-13T20:44:41.426Z,3.27
2018-12-13T20:47:12.409Z,3.28
2018-12-13T20:49:45.077Z,3.28
2018-12-13T20:52:16.661Z,3.22
2018-12-13T20:54:47.600Z,3.19
2018-12-13T20:57:18.404Z,3.15
2018-12-13T20:59:48.643Z,3.12
2018-12-13T21:02:20.554Z,3.16
2018-12-13T21:04:51.668Z,3.14
2018-12-13T21:07:26.698Z,3.13
2018-12-13T21:09:57.167Z,3.11
2018-12-13T21:12:28.265Z,3.11
2018-12-13T21:14:59.324Z,3.16
2018-12-13T21:17:29.998Z,3.15
2018-12-13T21:20:02.747Z,3.13
2018-12-13T21:22:35.896Z,3.10
2018-12-13T21:25:09.206Z,3.12
2018-12-13T21:27:39.644Z,3.13
2018-12-13T21:30:10.779Z,3.14
2018-12-13T21:32:42.018Z,3.12
2018-12-13T21:35:12.244Z,3.11
2018-12-13T21:37:42.881Z,3.11
2018-12-13T21:40:13.296Z,3.09
2018-12-13T21:42:43.540Z,3.09
2018-12-13T21:45:13.919Z,3.06
2018-12-13T21:47:45.669Z,3.07
2018-12-13T21:50:16.681Z,3.07
2018-12-13T21:52:51.293Z,3.09
2018-12-13T21:55:24.696Z,3.10
2018-12-13T21:57:56.653Z,3.15
2018-12-13T22:00:27.264Z,3.21
2018-12-13T22:02:58.538Z,3.21
2018-12-13T22:05:33.765Z,3.16
2018-12-13T22:08:07.657Z,3.16
2018-12-13T22:10:38.090Z,3.19
2018-12-13T22:13:17.590Z,3.20
2018-12-13T22:15:58.127Z,3.18
2018-12-13T22:18:32.387Z,3.16
2018-12-13T22:21:13.418Z,3.12
2018-12-13T22:23:46.656Z,3.11
2018-12-13T22:26:16.764Z,3.11
2018-12-13T22:28:47.120Z,3.09
2018-12-13T22:31:22.344Z,3.05
2018-12-13T22:33:54.384Z,3.04
2018-12-13T22:36:27.157Z,3.04
2018-12-13T22:38:59.558Z,3.02
2018-12-13T22:41:31.786Z,3.01
2018-12-13T22:44:02.667Z,3.02
2018-12-13T22:46:32.464Z,3.03
2018-12-13T22:49:04.409Z,2.97
2018-12-13T22:51:40.418Z,2.98
2018-12-13T22:54:16.339Z,2.93
2018-12-13T22:56:49.531Z,2.49
2018-12-13T22:59:23.773Z,2.91
2018-12-13T23:02:00.887Z,2.91
2018-12-13T23:04:33.835Z,2.92
2018-12-13T23:07:08.065Z,2.94
2018-12-13T23:09:38.398Z,2.95
2018-12-13T23:12:09.801Z,2.96
2018-12-13T23:14:39.761Z,2.96
2018-12-13T23:17:09.489Z,2.95
2018-12-13T23:19:39.834Z,2.91
2018-12-13T23:22:12.094Z,2.92
2018-12-13T23:24:42.188Z,2.95
2018-12-13T23:27:14.798Z,2.92
2018-12-13T23:29:44.815Z,2.96
2018-12-13T23:32:15.890Z,2.96
2018-12-13T23:34:45.844Z,2.98
2018-12-13T23:37:15.453Z,3.01
2018-12-13T23:39:45.634Z,3.02
2018-12-13T23:42:15.964Z,3.03
2018-12-13T23:44:46.625Z,3.09
2018-12-13T23:47:17.394Z,3.14
2018-12-13T23:49:50.997Z,3.14
2018-12-13T23:52:21.817Z,3.12
2018-12-13T23:54:52.078Z,3.19
2018-12-13T23:57:22.259Z,3.25
2018-12-13T23:59:52.395Z,3.32
